Home > Products > Valid Products > TAF

000
FTUS43 KARX 200540
TAFLSE
TAF
KLSE 200540Z 2006/2106 17008KT P6SM BKN120 WS013/21040KT
     FM200900 17008KT P6SM OVC080 WS013/21040KT
     FM201200 18006KT P6SM -SHRA BKN050
     FM210000 15004KT P6SM -SHRA BKN050=



000
FTUS43 KARX 200540
TAFRST
TAF
KRST 200540Z 2006/2106 19010KT P6SM OVC080
     FM200900 19009KT P6SM -SHRA BKN050
     FM210000 16006KT P6SM -SHRA BKN040=



000
FTUS43 KARX 200247 AAA
TAFLSE
TAF AMD
KLSE 200247Z 2003/2024 17008KT P6SM BKN120 WS013/21040KT
     FM200900 17008KT P6SM VCSH BKN070 WS013/21040KT
     FM201200 18006KT P6SM -SHRA BKN040=



000
FTUS43 KARX 192322
TAFRST
TAF
KRST 192322Z 2000/2024 18014G24KT P6SM BKN090
     FM200100 19012KT P6SM VCSH BKN080
     FM200600 21010KT P6SM VCSH BKN050
     FM200900 19009KT P6SM -SHRA BKN040=



000
FTUS43 KARX 192322
TAFLSE
TAF
KLSE 192322Z 2000/2024 16010KT P6SM BKN120
     FM200900 17008KT P6SM VCSH BKN070
     FM201200 18006KT P6SM -SHRA BKN040=



000
FTUS43 KARX 192104 AAA
TAFRST
TAF AMD
KRST 192104Z 1921/2018 17018G25KT P6SM BKN070
     FM200000 19012KT P6SM BKN100
     FM200600 21010KT P6SM VCSH BKN050
     FM200900 21006KT P6SM -SHRA BKN040
     FM201500 22008KT P6SM -SHRA BKN035=



000
FTUS43 KARX 191730
TAFLSE
TAF
KLSE 191730Z 1918/2018 16015G25KT P6SM SCT200
     FM200000 16010KT P6SM BKN120
     FM200900 17008KT P6SM VCSH BKN070
     FM201200 17006KT P6SM -SHRA BKN040=



000
FTUS43 KARX 191730
TAFRST
TAF
KRST 191730Z 1918/2018 17023G32KT P6SM SCT200
     FM200000 19012KT P6SM BKN100
     FM200600 21010KT P6SM VCSH BKN050
     FM200900 21006KT P6SM -SHRA BKN040
     FM201500 22008KT P6SM -SHRA BKN035=



000
FTUS43 KARX 191139 CCA
TAFRST
TAF COR
KRST 191139Z 1912/2012 16021G28KT P6SM SCT200
     FM191500 18023G30KT P6SM SCT200
     FM192100 19020G28KT P6SM BKN130
     FM200000 19012KT P6SM VCSH BKN050
     FM200600 21010KT P6SM -SHRA BKN040=



000
FTUS43 KARX 191120
TAFLSE
TAF
KLSE 191120Z 1912/2012 13013KT P6SM SCT200
     FM191600 16015G24KT P6SM SCT200
     FM200000 16010KT P6SM BKN150
     FM200300 16010KT P6SM BKN060
     FM200800 17008KT P6SM VCSH BKN050=



000
FTUS43 KARX 191120
TAFRST
TAF
KRST 191120Z 1912/2012 18021G28KT P6SM SCT200
     FM191500 18023G30KT P6SM SCT200
     FM192100 19020G28KT P6SM BKN130
     FM200000 19012KT P6SM VCSH BKN050
     FM200600 21010KT P6SM -SHRA BKN040=



000
FTUS43 KARX 190520
TAFRST
TAF
KRST 190520Z 1906/2006 14015KT P6SM SCT200 WS015/17047KT
     FM191300 18021G28KT P6SM SCT200
     FM192100 20020G28KT P6SM BKN080
     FM200000 19012KT P6SM VCSH OVC050=



000
FTUS43 KARX 190520
TAFLSE
TAF
KLSE 190520Z 1906/2006 12008KT P6SM SCT200 WS013/14040KT
     FM191200 13012KT P6SM SCT200
     FM191600 16015G24KT P6SM SKC
     FM200000 16010KT P6SM BKN150
     FM200300 16010KT P6SM OVC060=



000
FTUS43 KARX 182326
TAFRST
TAF
KRST 182326Z 1900/1924 12012KT P6SM SKC
     FM190600 14015KT P6SM SCT200 WS015/17047KT
     FM191300 18021G28KT P6SM SCT200
     FM192100 20020G28KT P6SM BKN080=



000
FTUS43 KARX 182326
TAFLSE
TAF
KLSE 182326Z 1900/1924 10005KT P6SM SCT100
     FM190600 12008KT P6SM SCT200 WS013/14040KT
     FM191200 13012KT P6SM SCT200
     FM191600 16015G24KT P6SM SKC=



000
FTUS43 KARX 181720
TAFLSE
TAF
KLSE 181720Z 1818/1918 09005KT P6SM FEW100
     FM190100 12008KT P6SM SCT200
     FM191000 13012KT P6SM SCT200
     FM191500 15015G24KT P6SM BKN200=



000
FTUS43 KARX 181720
TAFRST
TAF
KRST 181720Z 1818/1918 12012KT P6SM FEW100
     FM190100 13015KT P6SM SCT200
     FM190900 15018KT P6SM SCT200
     FM191300 17021G28KT P6SM BKN200=



000
FTUS43 KARX 181125
TAFLSE
TAF
KLSE 181125Z 1812/1912 VRB04KT P6SM SCT120
     FM181500 09005KT P6SM BKN080
     FM190000 12008KT P6SM SCT120
     FM191000 13012KT P6SM SCT150=



000
FTUS43 KARX 181125
TAFRST
TAF
KRST 181125Z 1812/1912 VRB04KT 3SM BR BKN080
     FM181400 11010KT P6SM BKN080
     FM190000 13013KT P6SM SCT120
     FM191000 15017KT P6SM SCT150=



000
FTUS43 KARX 180520
TAFLSE
TAF
KLSE 180520Z 1806/1906 VRB04KT P6SM SKC
      TEMPO 1808/1812 4SM BR
     FM181500 09005KT P6SM BKN120
     FM190000 12008KT P6SM SCT120=



000
FTUS43 KARX 180520
TAFRST
TAF
KRST 180520Z 1806/1906 VRB04KT 6SM BR SKC
      TEMPO 1807/1811 3SM BR
     FM181400 11010KT P6SM BKN120
     FM190000 13013KT P6SM SCT120=



000
FTUS43 KARX 180219 AAA
TAFRST
TAF AMD
KRST 180219Z 1802/1824 VRB04KT P6SM SKC
     FM181400 11010KT P6SM BKN120=



000
FTUS43 KARX 172320
TAFRST
TAF
KRST 172320Z 1800/1824 31012KT P6SM BKN015
     FM180400 35006KT P6SM SKC
     FM181400 11010KT P6SM BKN120=



000
FTUS43 KARX 172320
TAFLSE
TAF
KLSE 172320Z 1800/1824 32010KT P6SM OVC025
     FM180200 35005KT P6SM BKN025
     FM180600 36004KT P6SM SKC
     FM181500 09005KT P6SM BKN120=



000
FTUS43 KARX 172205 AAB
TAFLSE
TAF AMD
KLSE 172205Z 1722/1818 32010KT P6SM OVC025
     FM180200 35005KT P6SM BKN025
     FM180500 36004KT P6SM SKC
     FM181500 09004KT P6SM BKN150=



000
FTUS43 KARX 172101 AAA
TAFLSE
TAF AMD
KLSE 172101Z 1721/1818 30010KT P6SM BKN025
     FM180100 36004KT P6SM SKC
     FM181500 09004KT P6SM BKN150=



000
FTUS43 KARX 172100 AAA
TAFRST
TAF AMD
KRST 172100Z 1721/1818 31012KT P6SM BKN015
     FM180100 35006KT P6SM SKC
     FM181400 10009KT P6SM BKN150=



000
FTUS43 KARX 171724
TAFRST
TAF
KRST 171724Z 1718/1818 31013KT P6SM BKN012
     FM172200 33011KT P6SM SCT020
     FM180100 35006KT P6SM SKC
     FM181400 10009KT P6SM BKN150=



000
FTUS43 KARX 171724
TAFLSE
TAF
KLSE 171724Z 1718/1818 30010KT P6SM BKN020
     FM172200 32007KT P6SM SCT030
     FM180100 36004KT P6SM SKC
     FM181500 09004KT P6SM BKN150=



000
FTUS43 KARX 171444 AAA
TAFRST
TAF AMD
KRST 171444Z 1715/1812 31015KT 3SM BR OVC003
     FM171700 32015KT P6SM BKN012
     FM171900 32013KT P6SM SCT020
     FM180000 35006KT P6SM SKC=



000
FTUS43 KARX 171130
TAFRST
TAF
KRST 171130Z 1712/1812 31017KT 4SM BR OVC002
      TEMPO 1712/1714 2SM BR
     FM171400 31015G22KT P6SM OVC010
     FM171700 32015KT P6SM BKN015
     FM171900 32013KT P6SM SCT020
     FM180000 35006KT P6SM SKC=



000
FTUS43 KARX 171130
TAFLSE
TAF
KLSE 171130Z 1712/1812 28012G20KT P6SM OVC020
      TEMPO 1712/1715 OVC010
     FM171500 30014KT P6SM OVC015
     FM171800 31012KT P6SM BKN025
     FM172100 31010KT P6SM SCT030
     FM180000 33006KT P6SM SKC=



    US Dept of Commerce
    National Oceanic and Atmospheric Administration
    National Weather Service
    1325 East West Highway
    Silver Spring, MD 20910
    Page Author: NWS Internet Services Team
Disclaimer
Information Quality
Credits
Glossary
Privacy Policy
Freedom of Information Act (FOIA)
About Us
Career Opportunities